Time;durP1;ratioP1;P1;durP2;ratioP2;P2;SDS_P1;SDS_P2;PMS_P1;PMS_P2;Temp;Humidity;BMP_temperature;BMP_pressure;BME280_temperature;BME280_humidity;BME280_pressure;Samples;Min_cycle;Max_cycle;Signal;HPM_P1;HPM_P2
2021/05/10 00:00:33;;;;;;;2.90;1.35;;;;;;;13.74;83.88;95373.72;5076687;28;21211;-72
2021/05/10 00:03:00;;;;;;;2.90;1.80;;;;;;;13.72;83.84;95373.09;5080454;28;20219;-72
2021/05/10 00:05:26;;;;;;;3.45;1.48;;;;;;;13.70;84.21;95370.69;5079439;28;20583;-72
2021/05/10 00:07:52;;;;;;;4.70;1.60;;;;;;;13.76;83.47;95372.47;5080585;28;20216;-72
2021/05/10 00:10:18;;;;;;;3.80;1.63;;;;;;;13.77;83.62;95370.63;5080297;28;20227;-72
2021/05/10 00:12:44;;;;;;;6.10;1.67;;;;;;;13.65;84.15;95367.84;5079967;28;20226;-72
2021/05/10 00:15:11;;;;;;;3.83;2.75;;;;;;;13.59;84.53;95371.41;5079447;28;20442;-72
2021/05/10 00:17:38;;;;;;;2.63;1.88;;;;;;;13.52;85.29;95362.69;5080335;28;20199;-72
2021/05/10 00:20:06;;;;;;;4.57;1.80;;;;;;;13.52;85.15;95365.31;5080170;28;20230;-72
2021/05/10 00:22:32;;;;;;;2.30;1.52;;;;;;;13.42;84.84;95359.69;5079562;28;21051;-72
2021/05/10 00:24:58;;;;;;;2.50;1.70;;;;;;;13.37;85.71;95360.56;5079622;28;20250;-72
2021/05/10 00:27:24;;;;;;;2.70;1.70;;;;;;;13.29;85.39;95358.16;5079693;28;21421;-72
2021/05/10 00:29:50;;;;;;;3.92;1.70;;;;;;;13.25;86.18;95352.53;5079687;28;20228;-72
2021/05/10 00:32:16;;;;;;;3.28;1.83;;;;;;;13.15;85.81;95349.53;5079982;28;20385;-72
2021/05/10 00:34:42;;;;;;;4.25;1.92;;;;;;;13.20;85.68;95351.53;5079533;28;20211;-72
2021/05/10 00:37:09;;;;;;;2.83;2.00;;;;;;;13.22;85.25;95346.84;5079290;28;20204;-72
2021/05/10 00:39:35;;;;;;;3.25;1.63;;;;;;;13.30;85.72;95341.28;5079148;28;20606;-72
2021/05/10 00:42:01;;;;;;;3.08;1.80;;;;;;;13.39;86.18;95336.31;5080064;28;20290;-72
2021/05/10 00:44:27;;;;;;;2.47;1.60;;;;;;;13.38;85.93;95333.06;5078651;28;20257;-72
2021/05/10 00:46:53;;;;;;;4.25;1.90;;;;;;;13.23;86.86;95335.25;5078734;28;20214;-72
2021/05/10 00:49:19;;;;;;;4.28;1.88;;;;;;;13.26;86.84;95332.16;5078133;28;20220;-72
2021/05/10 00:51:45;;;;;;;3.83;1.75;;;;;;;13.17;85.95;95333.44;5080171;28;20204;-72
2021/05/10 00:54:12;;;;;;;4.00;1.90;;;;;;;13.12;87.25;95333.28;5079104;28;20271;-72
2021/05/10 00:56:38;;;;;;;3.22;1.77;;;;;;;13.09;87.68;95328.41;5077817;28;20204;-72
2021/05/10 00:59:05;;;;;;;2.90;1.80;;;;;;;13.03;88.16;95327.41;5077435;28;20200;-72
2021/05/10 01:01:31;;;;;;;3.25;1.80;;;;;;;13.08;88.18;95327.59;5078807;28;20208;-72
2021/05/10 01:03:57;;;;;;;5.32;1.95;;;;;;;13.15;88.33;95327.53;5078785;28;20204;-72
2021/05/10 01:06:23;;;;;;;4.60;1.70;;;;;;;13.21;87.86;95331.97;5078720;28;20261;-72
2021/05/10 01:08:49;;;;;;;6.38;1.85;;;;;;;13.17;87.73;95336.09;5078376;28;20211;-72
2021/05/10 01:11:16;;;;;;;4.43;1.70;;;;;;;13.14;88.62;95336.53;5078570;28;20227;-72
2021/05/10 01:13:43;;;;;;;3.10;1.80;;;;;;;13.08;88.88;95340.81;5079120;28;20211;-72
2021/05/10 01:16:09;;;;;;;3.08;1.70;;;;;;;13.03;89.19;95343.28;5078455;28;20300;-72
2021/05/10 01:18:35;;;;;;;4.57;2.03;;;;;;;13.03;89.93;95338.00;5078387;28;21045;-72
2021/05/10 01:21:02;;;;;;;1.80;1.55;;;;;;;12.95;90.47;95340.09;5078999;28;20224;-72
2021/05/10 01:23:30;;;;;;;4.30;1.90;;;;;;;12.90;90.45;95342.56;5078536;28;20204;-72
2021/05/10 01:25:56;;;;;;;2.20;1.73;;;;;;;12.81;91.41;95347.25;5077458;28;20269;-72
2021/05/10 01:28:22;;;;;;;3.85;2.08;;;;;;;12.74;92.49;95347.50;5079122;28;20211;-72
2021/05/10 01:30:49;;;;;;;4.43;2.13;;;;;;;12.68;93.65;95341.25;5078532;28;20228;-72
2021/05/10 01:33:17;;;;;;;3.40;1.80;;;;;;;12.62;93.62;95339.44;5078626;28;20819;-72
2021/05/10 01:35:46;;;;;;;5.18;1.80;;;;;;;12.57;93.31;95331.31;5077199;28;20674;-72
2021/05/10 01:38:13;;;;;;;4.25;2.05;;;;;;;12.57;93.32;95336.59;5078693;28;20203;-72
2021/05/10 01:40:40;;;;;;;2.10;1.90;;;;;;;12.64;93.49;95326.84;5078288;28;20215;-72
2021/05/10 01:43:06;;;;;;;4.18;1.90;;;;;;;12.63;92.77;95341.06;5078826;28;20203;-72
2021/05/10 01:45:33;;;;;;;3.53;1.90;;;;;;;12.59;93.38;95345.16;5077779;28;20317;-72
2021/05/10 01:48:01;;;;;;;2.35;1.90;;;;;;;12.53;93.88;95351.25;5078267;28;20215;-72
2021/05/10 01:50:27;;;;;;;2.10;1.77;;;;;;;12.49;93.60;95346.63;5077932;28;20235;-72
2021/05/10 01:52:54;;;;;;;5.78;2.00;;;;;;;12.34;94.04;95344.22;5078401;28;20619;-72
2021/05/10 01:55:22;;;;;;;2.53;1.63;;;;;;;12.22;95.02;95347.75;5078045;28;20226;-72
2021/05/10 01:57:49;;;;;;;3.85;2.10;;;;;;;12.18;95.26;95343.88;5077722;28;20196;-72
2021/05/10 02:00:20;;;;;;;6.10;2.20;;;;;;;12.17;96.06;95340.44;5075864;28;20220;-72
2021/05/10 02:02:45;;;;;;;2.97;2.05;;;;;;;12.20;95.39;95329.44;5078202;28;20242;-72
2021/05/10 02:05:15;;;;;;;2.25;1.65;;;;;;;12.15;94.44;95319.72;5076997;28;20310;-72
2021/05/10 02:07:43;;;;;;;2.92;2.05;;;;;;;11.97;95.35;95317.75;5077343;28;20204;-72
2021/05/10 02:10:12;;;;;;;5.32;1.88;;;;;;;11.91;96.14;95323.03;5078644;28;20227;-72
2021/05/10 02:12:38;;;;;;;3.58;2.20;;;;;;;11.86;96.82;95318.41;5077299;28;20268;-72
2021/05/10 02:15:08;;;;;;;4.97;2.15;;;;;;;12.03;96.74;95311.63;5077436;28;20208;-72
2021/05/10 02:17:35;;;;;;;4.00;2.22;;;;;;;12.09;95.76;95307.34;5077580;28;20211;-72
2021/05/10 02:20:02;;;;;;;3.83;2.13;;;;;;;12.04;94.69;95317.72;5077130;28;20220;-72
2021/05/10 02:22:28;;;;;;;5.25;2.22;;;;;;;12.07;94.69;95319.97;5077968;28;20204;-72
2021/05/10 02:24:54;;;;;;;5.95;2.25;;;;;;;12.12;95.00;95314.84;5077862;28;20200;-72
2021/05/10 02:27:20;;;;;;;5.18;2.25;;;;;;;12.23;95.08;95322.94;5076580;28;20230;-72
2021/05/10 02:29:46;;;;;;;2.88;1.95;;;;;;;12.21;94.08;95317.84;5077526;28;20314;-72
2021/05/10 02:32:12;;;;;;;4.60;2.25;;;;;;;12.17;94.99;95321.16;5075113;28;20207;-72
2021/05/10 02:34:38;;;;;;;4.28;2.25;;;;;;;12.25;94.24;95332.28;5077916;28;20237;-72
2021/05/10 02:37:04;;;;;;;3.92;1.95;;;;;;;12.22;94.38;95321.34;5076743;28;20236;-72
2021/05/10 02:39:30;;;;;;;3.30;1.98;;;;;;;12.24;94.04;95321.91;5077648;28;20224;-72
2021/05/10 02:41:56;;;;;;;8.45;2.40;;;;;;;12.26;93.36;95325.97;5077203;28;20998;-72
2021/05/10 02:44:22;;;;;;;3.55;2.10;;;;;;;12.20;95.05;95323.34;5077868;28;20200;-72
2021/05/10 02:46:48;;;;;;;3.35;2.20;;;;;;;12.16;94.63;95333.53;5076465;28;20207;-72
2021/05/10 02:49:15;;;;;;;4.10;2.40;;;;;;;12.16;94.00;95326.63;5077136;28;20787;-72
2021/05/10 02:51:41;;;;;;;7.97;2.40;;;;;;;12.12;94.83;95326.25;5077240;28;20207;-72
2021/05/10 02:54:07;;;;;;;3.13;2.40;;;;;;;11.97;95.48;95333.59;5077061;28;20295;-72
2021/05/10 02:56:33;;;;;;;3.17;2.13;;;;;;;11.96;96.22;95341.72;5076240;28;20223;-72
2021/05/10 02:58:59;;;;;;;4.00;2.00;;;;;;;11.97;96.46;95336.22;5074358;28;20207;-72
2021/05/10 03:01:25;;;;;;;3.20;2.10;;;;;;;11.84;96.49;95322.25;5077610;28;20207;-72
2021/05/10 03:03:51;;;;;;;6.18;2.10;;;;;;;11.85;96.93;95339.69;5076927;28;20207;-72
2021/05/10 03:06:18;;;;;;;3.42;2.53;;;;;;;11.83;97.28;95331.19;5076757;28;20211;-72
2021/05/10 03:08:44;;;;;;;3.63;2.15;;;;;;;11.74;97.44;95333.22;5077874;28;20204;-72
2021/05/10 03:11:10;;;;;;;4.00;2.20;;;;;;;11.76;97.99;95325.91;5076048;28;20904;-72
2021/05/10 03:13:36;;;;;;;5.72;2.20;;;;;;;11.75;98.12;95318.22;5077038;28;20204;-72
2021/05/10 03:16:02;;;;;;;3.55;2.28;;;;;;;11.70;97.80;95331.22;5077227;28;20207;-72
2021/05/10 03:18:28;;;;;;;5.32;2.92;;;;;;;11.71;97.92;95319.63;5077355;28;20209;-72
2021/05/10 03:20:54;;;;;;;4.28;2.50;;;;;;;11.59;98.47;95323.91;5076322;28;20239;-72
2021/05/10 03:23:22;;;;;;;5.60;2.90;;;;;;;11.55;99.98;95321.91;5077145;28;21509;-72
2021/05/10 03:25:48;;;;;;;5.68;2.50;;;;;;;11.59;98.91;95330.00;5076008;28;21082;-72
2021/05/10 03:28:14;;;;;;;3.72;2.40;;;;;;;11.38;99.87;95332.03;5076612;28;20222;-72
2021/05/10 03:30:40;;;;;;;4.13;2.30;;;;;;;11.51;99.47;95334.69;5076336;28;20262;-72
2021/05/10 03:33:07;;;;;;;4.87;2.60;;;;;;;11.61;99.39;95335.09;5077270;28;20246;-72
2021/05/10 03:35:33;;;;;;;5.25;2.45;;;;;;;11.47;99.67;95341.34;5076138;28;20204;-72
2021/05/10 03:37:59;;;;;;;5.85;2.97;;;;;;;11.50;99.87;95334.88;5076996;28;20207;-73
2021/05/10 03:40:26;;;;;;;5.87;2.53;;;;;;;11.53;100.00;95330.00;5076249;28;20226;-72
2021/05/10 03:42:53;;;;;;;5.03;2.60;;;;;;;11.53;99.19;95335.28;5077095;28;20203;-72
2021/05/10 03:45:19;;;;;;;7.85;2.40;;;;;;;11.61;99.35;95335.09;5076212;28;20214;-72
2021/05/10 03:47:45;;;;;;;6.00;2.70;;;;;;;11.57;100.00;95336.50;5076785;28;20947;-72
2021/05/10 03:50:12;;;;;;;5.37;2.80;;;;;;;11.49;100.00;95334.03;5076526;28;20276;-72
2021/05/10 03:52:39;;;;;;;4.43;2.80;;;;;;;11.44;100.00;95335.66;5076712;28;20203;-72
2021/05/10 03:55:07;;;;;;;4.73;2.70;;;;;;;11.55;100.00;95335.09;5076247;28;20257;-72
2021/05/10 03:57:33;;;;;;;6.43;2.70;;;;;;;11.56;100.00;95345.44;5076891;28;20230;-72
2021/05/10 03:59:59;;;;;;;4.70;2.45;;;;;;;11.43;99.94;95345.41;5073345;28;20216;-72
2021/05/10 04:02:27;;;;;;;7.43;2.50;;;;;;;11.53;100.00;95353.75;5076694;28;20250;-72
2021/05/10 04:04:57;;;;;;;3.97;2.60;;;;;;;11.30;100.00;95355.13;5076275;28;20355;-72
2021/05/10 04:07:38;;;;;;;5.23;2.60;;;;;;;11.35;100.00;95357.97;5075300;28;20437;-72
2021/05/10 04:10:24;;;;;;;4.70;2.43;;;;;;;11.49;100.00;95355.13;5075783;28;20231;-72
2021/05/10 04:15:35;;;;;;;6.40;2.63;;;;;;;11.51;100.00;95371.63;5075278;28;20337;-72
2021/05/10 04:18:01;;;;;;;3.67;2.60;;;;;;;11.52;100.00;95377.69;5076394;28;20212;-72
2021/05/10 04:20:27;;;;;;;3.35;2.20;;;;;;;11.64;100.00;95379.53;5076118;28;20330;-72
2021/05/10 04:22:52;;;;;;;4.07;2.10;;;;;;;11.55;100.00;95378.09;5076319;28;20204;-72
2021/05/10 04:25:18;;;;;;;4.33;2.60;;;;;;;11.58;100.00;95385.59;5078494;28;20276;-72
2021/05/10 04:27:46;;;;;;;9.70;2.75;;;;;;;11.55;100.00;95395.78;5080714;28;20215;-72
2021/05/10 04:30:14;;;;;;;7.25;3.15;;;;;;;11.79;100.00;95393.31;5080706;28;20235;-72
2021/05/10 04:32:40;;;;;;;7.40;2.67;;;;;;;11.84;100.00;95399.59;5079180;28;20287;-72
2021/05/10 04:35:07;;;;;;;7.00;2.83;;;;;;;11.90;100.00;95390.03;5079628;28;20204;-72
2021/05/10 04:37:33;;;;;;;5.88;2.80;;;;;;;11.98;100.00;95395.94;5080506;28;20575;-72
2021/05/10 04:39:59;;;;;;;4.82;2.88;;;;;;;11.99;100.00;95394.09;5079843;28;20229;-72
2021/05/10 04:42:25;;;;;;;7.07;3.47;;;;;;;12.03;100.00;95393.50;5079780;28;20600;-72
2021/05/10 04:44:51;;;;;;;7.55;3.40;;;;;;;12.12;100.00;95399.34;5079872;28;20203;-72
2021/05/10 04:47:18;;;;;;;7.55;3.00;;;;;;;12.03;100.00;95425.19;5078339;28;20993;-72
2021/05/10 04:49:44;;;;;;;4.57;3.10;;;;;;;11.94;100.00;95422.94;5080051;28;20259;-72
2021/05/10 04:52:10;;;;;;;7.55;3.47;;;;;;;12.01;100.00;95416.63;5079312;28;21255;-72
2021/05/10 04:54:36;;;;;;;7.70;3.80;;;;;;;12.15;100.00;95418.25;5079508;28;20642;-72
2021/05/10 04:57:02;;;;;;;8.57;3.75;;;;;;;12.23;100.00;95418.84;5078903;28;20249;-72
2021/05/10 04:59:28;;;;;;;7.22;3.75;;;;;;;12.33;100.00;95419.22;5076488;28;20220;-72
2021/05/10 05:01:54;;;;;;;7.13;3.60;;;;;;;12.50;100.00;95428.31;5079566;28;20291;-72
2021/05/10 05:04:21;;;;;;;7.65;3.72;;;;;;;12.62;100.00;95424.00;5079130;28;20303;-72
2021/05/10 05:06:47;;;;;;;8.20;4.03;;;;;;;12.65;100.00;95420.94;5078992;28;20200;-72
2021/05/10 05:09:13;;;;;;;8.90;3.80;;;;;;;12.64;100.00;95419.34;5079547;28;20203;-72
2021/05/10 05:11:39;;;;;;;8.65;3.78;;;;;;;12.67;100.00;95400.41;5079070;28;20211;-72
2021/05/10 05:14:05;;;;;;;9.57;4.75;;;;;;;12.75;100.00;95402.00;5079105;28;21073;-72
2021/05/10 05:16:31;;;;;;;8.85;4.53;;;;;;;12.70;100.00;95399.97;5078829;28;20243;-72
2021/05/10 05:18:57;;;;;;;9.75;4.72;;;;;;;12.73;100.00;95391.66;5078537;28;20200;-72
2021/05/10 05:21:24;;;;;;;13.43;5.40;;;;;;;12.75;100.00;95379.00;5079268;28;20214;-71
2021/05/10 05:23:50;;;;;;;14.15;5.10;;;;;;;12.86;100.00;95378.38;5079074;28;20204;-71
2021/05/10 05:26:16;;;;;;;15.93;5.03;;;;;;;12.96;100.00;95381.41;5078251;28;20295;-71
2021/05/10 05:28:42;;;;;;;12.43;4.53;;;;;;;13.22;98.50;95378.59;5078468;28;20214;-71
2021/05/10 05:31:08;;;;;;;12.35;4.07;;;;;;;13.37;97.81;95398.41;5079709;28;20716;-72
2021/05/10 05:33:34;;;;;;;9.98;4.35;;;;;;;13.52;95.91;95397.09;5078493;28;20200;-72
2021/05/10 05:36:00;;;;;;;11.82;4.28;;;;;;;13.65;95.49;95407.56;5077549;28;20219;-71
2021/05/10 05:38:30;;;;;;;9.65;3.95;;;;;;;13.80;94.31;95402.78;5077725;28;20207;-71
2021/05/10 05:40:56;;;;;;;10.20;4.28;;;;;;;13.93;93.92;95421.19;5078607;28;20239;-71
2021/05/10 05:43:22;;;;;;;13.00;3.85;;;;;;;14.14;92.13;95423.47;5078492;28;20742;-71
2021/05/10 05:45:48;;;;;;;8.90;4.78;;;;;;;14.29;95.81;95421.31;5078410;28;20264;-71
2021/05/10 05:48:14;;;;;;;9.75;3.92;;;;;;;14.41;95.25;95414.22;5078366;28;20742;-71
2021/05/10 05:50:40;;;;;;;15.27;4.05;;;;;;;14.53;94.10;95428.41;5079060;28;20322;-71
2021/05/10 05:53:07;;;;;;;10.68;4.50;;;;;;;14.63;95.67;95424.19;5078752;28;20249;-71
2021/05/10 05:55:34;;;;;;;12.73;4.18;;;;;;;14.73;96.13;95419.19;5078654;28;20203;-72
2021/05/10 05:58:01;;;;;;;11.13;4.70;;;;;;;14.72;96.78;95422.88;5078305;28;20451;-72
2021/05/10 06:00:27;;;;;;;11.15;5.43;;;;;;;14.93;96.92;95417.09;5074261;28;20220;-72
2021/05/10 06:02:53;;;;;;;9.98;5.00;;;;;;;15.09;94.92;95409.34;5078514;28;20211;-72
2021/05/10 06:05:19;;;;;;;10.45;4.82;;;;;;;15.14;89.64;95406.03;5077822;28;21047;-72
2021/05/10 06:07:46;;;;;;;11.45;4.97;;;;;;;15.24;90.04;95419.59;5078171;28;20204;-72
2021/05/10 06:10:14;;;;;;;12.77;4.70;;;;;;;15.22;92.79;95417.16;5077674;28;20235;-72
2021/05/10 06:12:44;;;;;;;14.48;4.43;;;;;;;15.32;92.35;95420.91;5078594;28;20946;-72
2021/05/10 06:15:10;;;;;;;10.65;4.68;;;;;;;15.45;92.53;95430.50;5077058;28;20199;-72
2021/05/10 06:17:37;;;;;;;19.10;5.38;;;;;;;15.54;88.82;95427.31;5076727;28;20207;-72
2021/05/10 06:20:04;;;;;;;11.88;4.95;;;;;;;15.54;89.20;95426.50;5077095;28;20764;-72
2021/05/10 06:22:30;;;;;;;8.90;4.80;;;;;;;15.81;87.78;95441.81;5077276;28;20196;-72
2021/05/10 06:24:56;;;;;;;12.30;4.90;;;;;;;15.94;87.39;95446.94;5077055;28;20253;-72
2021/05/10 06:27:22;;;;;;;12.48;5.03;;;;;;;16.04;86.50;95442.66;5076838;28;20203;-72
2021/05/10 06:29:48;;;;;;;19.67;5.40;;;;;;;16.04;88.67;95453.31;5076603;28;20219;-72
2021/05/10 06:32:14;;;;;;;10.15;5.25;;;;;;;16.06;90.82;95461.88;5074073;28;20242;-72
2021/05/10 06:34:40;;;;;;;11.55;4.95;;;;;;;16.03;90.60;95462.31;5088438;28;20215;-69
2021/05/10 06:37:06;;;;;;;12.40;5.30;;;;;;;15.99;91.09;95455.84;5099685;28;20248;-69
2021/05/10 06:39:32;;;;;;;12.35;5.35;;;;;;;16.02;93.65;95458.03;5100670;28;20216;-69
2021/05/10 06:41:58;;;;;;;10.88;5.72;;;;;;;16.09;93.50;95463.25;5090806;28;20208;-69
2021/05/10 06:44:24;;;;;;;15.05;5.35;;;;;;;16.10;91.85;95454.22;5102774;28;20203;-69
2021/05/10 06:46:51;;;;;;;9.80;5.10;;;;;;;16.08;89.56;95465.09;5097695;28;20208;-69
2021/05/10 06:49:17;;;;;;;14.27;4.90;;;;;;;16.22;88.81;95463.03;5090498;28;20227;-69
2021/05/10 06:51:43;;;;;;;11.63;4.60;;;;;;;16.43;89.44;95457.97;5073843;28;20287;-69
2021/05/10 06:54:09;;;;;;;14.77;4.88;;;;;;;16.51;92.90;95455.78;5098205;28;20289;-69
2021/05/10 06:56:35;;;;;;;10.82;4.90;;;;;;;16.85;90.38;95454.97;5090057;28;20200;-69
2021/05/10 06:59:01;;;;;;;9.73;4.72;;;;;;;17.04;87.48;95456.41;5091041;28;20203;-69
2021/05/10 07:01:27;;;;;;;14.35;4.72;;;;;;;17.13;83.78;95444.34;5084056;28;20238;-69
2021/05/10 07:03:54;;;;;;;17.30;5.07;;;;;;;17.27;86.64;95440.41;5090234;28;20264;-69
2021/05/10 07:06:21;;;;;;;15.88;5.30;;;;;;;17.41;88.63;95437.25;5090277;28;20207;-69
2021/05/10 07:08:47;;;;;;;11.80;5.03;;;;;;;17.68;88.19;95421.44;5088396;28;20235;-69
2021/05/10 07:11:13;;;;;;;13.63;5.05;;;;;;;18.01;87.36;95423.13;5093760;28;20238;-70
2021/05/10 07:13:39;;;;;;;14.05;5.10;;;;;;;18.23;92.53;95420.53;5090367;28;20204;-69
2021/05/10 07:16:05;;;;;;;16.30;5.25;;;;;;;18.43;82.15;95411.00;5090276;28;20566;-69
2021/05/10 07:18:31;;;;;;;12.85;3.70;;;;;;;18.68;76.89;95419.38;5092653;28;20403;-70
2021/05/10 07:20:58;;;;;;;5.55;3.30;;;;;;;19.13;76.53;95413.59;5088219;28;20231;-70
2021/05/10 07:23:24;;;;;;;7.63;3.13;;;;;;;19.61;73.75;95414.41;5089900;28;20924;-70
2021/05/10 07:25:51;;;;;;;10.00;2.95;;;;;;;20.00;69.39;95425.78;5088294;28;20211;-69
2021/05/10 07:28:19;;;;;;;7.80;4.03;;;;;;;20.41;61.54;95421.28;5088476;28;20203;-69
2021/05/10 07:30:46;;;;;;;7.97;1.88;;;;;;;20.71;55.63;95418.00;5088377;28;20228;-69
2021/05/10 07:33:12;;;;;;;4.07;1.65;;;;;;;20.86;52.35;95414.38;5097551;28;20199;-70
2021/05/10 07:35:39;;;;;;;9.18;1.73;;;;;;;20.91;51.68;95413.59;5088227;28;20543;-69
2021/05/10 07:38:06;;;;;;;4.20;1.63;;;;;;;21.02;51.21;95421.44;5087643;28;20197;-70
2021/05/10 07:40:33;;;;;;;3.33;1.50;;;;;;;21.01;50.53;95435.88;5085822;28;20635;-70
2021/05/10 07:42:59;;;;;;;4.65;1.40;;;;;;;21.19;50.64;95443.47;5085005;28;20252;-70
2021/05/10 07:45:26;;;;;;;1.50;1.40;;;;;;;21.13;50.29;95444.53;5091285;28;20202;-70
2021/05/10 07:47:54;;;;;;;4.95;1.50;;;;;;;21.18;52.05;95436.53;5080610;28;20191;-70
2021/05/10 07:50:20;;;;;;;2.25;1.40;;;;;;;21.19;51.70;95437.31;5083679;28;20226;-70
2021/05/10 07:52:46;;;;;;;7.57;1.90;;;;;;;21.21;52.25;95446.72;5090238;28;20199;-69
2021/05/10 07:55:13;;;;;;;5.13;1.67;;;;;;;21.30;52.37;95449.69;5088949;28;20199;-70
2021/05/10 07:57:39;;;;;;;4.38;1.63;;;;;;;21.45;51.95;95442.53;5091371;28;20849;-69
2021/05/10 08:00:10;;;;;;;8.30;1.77;;;;;;;21.39;52.29;95448.94;5092589;28;20226;-69
2021/05/10 08:02:37;;;;;;;8.95;1.80;;;;;;;21.52;52.33;95443.94;5089268;28;20576;-70
2021/05/10 08:05:04;;;;;;;5.05;1.83;;;;;;;21.63;51.91;95439.41;5086260;28;20189;-70
2021/05/10 08:07:30;;;;;;;6.03;1.77;;;;;;;21.61;55.19;95433.47;5089965;28;20204;-70
2021/05/10 08:09:56;;;;;;;2.63;1.55;;;;;;;21.60;56.76;95439.91;5093676;28;20241;-70
2021/05/10 08:12:23;;;;;;;4.57;1.75;;;;;;;21.93;60.43;95439.44;5095135;28;20208;-70
2021/05/10 08:14:49;;;;;;;6.07;1.80;;;;;;;22.09;56.65;95450.75;5092511;28;20238;-70
2021/05/10 08:17:15;;;;;;;2.00;1.38;;;;;;;22.00;55.82;95450.75;5086371;28;21305;-72
2021/05/10 08:19:41;;;;;;;4.75;1.67;;;;;;;22.04;55.06;95446.47;5079151;28;20243;-72
2021/05/10 08:22:08;;;;;;;3.67;1.58;;;;;;;22.01;53.02;95441.59;5079775;28;20200;-72
2021/05/10 08:24:34;;;;;;;4.78;1.75;;;;;;;21.98;54.81;95439.47;5080121;28;20204;-72
2021/05/10 08:27:00;;;;;;;4.82;1.63;;;;;;;22.12;55.56;95438.66;5079190;28;20681;-72
2021/05/10 08:29:27;;;;;;;4.10;1.60;;;;;;;22.26;55.78;95437.94;5078453;28;20597;-72
2021/05/10 08:31:55;;;;;;;4.18;1.73;;;;;;;22.34;56.85;95436.56;5079340;28;20738;-72
2021/05/10 08:34:21;;;;;;;4.20;1.98;;;;;;;22.32;54.68;95442.19;5079926;28;20219;-72
2021/05/10 08:36:47;;;;;;;3.55;1.73;;;;;;;22.23;55.92;95430.34;5076593;28;20938;-72
2021/05/10 08:39:13;;;;;;;3.17;1.70;;;;;;;22.23;54.88;95432.25;5079093;28;20566;-72
2021/05/10 08:41:41;;;;;;;2.92;1.77;;;;;;;21.99;56.37;95438.41;5079788;28;20200;-72
2021/05/10 08:44:08;;;;;;;2.53;1.73;;;;;;;22.07;58.55;95433.28;5079086;28;20207;-72
2021/05/10 08:46:37;;;;;;;3.95;1.60;;;;;;;22.25;58.77;95432.78;5078746;28;20204;-72
2021/05/10 08:49:04;;;;;;;2.55;1.60;;;;;;;22.21;56.70;95437.06;5078156;28;20199;-72
2021/05/10 08:51:31;;;;;;;2.42;1.65;;;;;;;22.30;55.87;95441.69;5078975;28;20223;-73
2021/05/10 08:53:57;;;;;;;3.30;1.50;;;;;;;22.34;56.28;95425.81;5079006;28;20705;-72
2021/05/10 08:56:24;;;;;;;4.97;2.05;;;;;;;22.52;58.12;95418.03;5077754;28;20211;-72
2021/05/10 08:58:50;;;;;;;3.92;1.83;;;;;;;22.61;54.35;95416.44;5079301;28;20200;-72
2021/05/10 09:01:17;;;;;;;3.83;1.60;;;;;;;22.64;56.56;95407.03;5078432;28;20220;-72
2021/05/10 09:03:46;;;;;;;5.85;1.70;;;;;;;22.83;58.83;95406.97;5079741;28;20235;-72
2021/05/10 09:06:13;;;;;;;4.38;1.75;;;;;;;23.03;59.30;95415.03;5078079;28;20219;-72
2021/05/10 09:08:41;;;;;;;2.92;1.70;;;;;;;23.20;55.98;95414.69;5078414;28;20203;-72
2021/05/10 09:11:09;;;;;;;6.03;1.60;;;;;;;23.56;54.33;95409.69;5077578;28;20231;-72
2021/05/10 09:13:40;;;;;;;2.92;1.60;;;;;;;23.70;50.39;95405.38;5078942;28;20253;-72
2021/05/10 09:16:07;;;;;;;3.47;1.70;;;;;;;23.73;49.96;95407.47;5077610;28;20208;-72
2021/05/10 09:18:34;;;;;;;3.28;1.50;;;;;;;23.92;50.75;95415.69;5079203;28;20204;-73
2021/05/10 09:21:15;;;;;;;3.00;1.90;;;;;;;24.12;49.62;95419.06;5077177;28;20220;-72
2021/05/10 09:23:41;;;;;;;4.35;1.50;;;;;;;24.22;46.50;95416.31;5076524;28;20955;-73
2021/05/10 09:26:08;;;;;;;3.85;2.13;;;;;;;24.11;50.40;95412.09;5076711;28;20195;-72
2021/05/10 09:28:40;;;;;;;8.25;1.70;;;;;;;24.43;50.10;95409.72;5077678;28;20211;-73
2021/05/10 09:31:07;;;;;;;5.55;1.50;;;;;;;24.39;47.04;95409.47;5075991;28;20228;-73
2021/05/10 09:33:35;;;;;;;5.07;1.50;;;;;;;24.48;49.17;95401.56;5077444;28;20204;-73
2021/05/10 09:36:05;;;;;;;3.60;1.45;;;;;;;24.72;51.54;95393.28;5076091;28;20215;-73
2021/05/10 09:38:34;;;;;;;4.70;1.60;;;;;;;24.78;48.83;95397.53;5077848;28;20203;-73
2021/05/10 09:41:01;;;;;;;2.72;1.55;;;;;;;24.71;49.55;95399.75;5076579;28;20233;-73
2021/05/10 09:43:28;;;;;;;2.53;1.30;;;;;;;24.70;46.90;95406.22;5078436;28;20204;-73
2021/05/10 09:45:56;;;;;;;5.10;1.73;;;;;;;25.01;45.28;95404.03;5077403;28;20204;-73
2021/05/10 09:48:26;;;;;;;3.33;1.52;;;;;;;25.17;43.97;95405.50;5077290;28;20226;-73
2021/05/10 09:50:55;;;;;;;5.68;1.50;;;;;;;25.20;43.71;95392.22;5076022;28;20676;-73
2021/05/10 09:53:29;;;;;;;4.53;1.30;;;;;;;25.46;42.68;95394.34;5076035;28;20204;-73
2021/05/10 09:55:57;;;;;;;5.03;1.30;;;;;;;25.62;44.08;95393.03;5074743;28;20515;-73
2021/05/10 09:58:24;;;;;;;3.63;1.40;;;;;;;25.85;43.93;95389.50;5077287;28;20724;-72
2021/05/10 10:00:58;;;;;;;2.45;1.27;;;;;;;25.57;43.65;95395.00;5076385;28;20645;-72
2021/05/10 10:03:33;;;;;;;4.88;1.17;;;;;;;25.55;43.86;95386.41;5074551;28;20665;-72
2021/05/10 10:06:02;;;;;;;3.30;1.50;;;;;;;25.87;43.73;95384.63;5075693;28;20245;-72
2021/05/10 10:08:28;;;;;;;8.43;1.40;;;;;;;26.20;41.00;95384.41;5077860;28;20221;-73
2021/05/10 10:10:55;;;;;;;3.08;1.20;;;;;;;26.44;42.34;95401.34;5077278;28;20701;-72
2021/05/10 10:13:22;;;;;;;2.83;1.25;;;;;;;26.46;39.46;95408.06;5077780;28;20207;-72
2021/05/10 10:15:48;;;;;;;1.95;0.80;;;;;;;26.19;42.19;95398.19;5077219;28;20609;-72
2021/05/10 10:18:20;;;;;;;7.75;1.10;;;;;;;26.36;36.30;95399.28;5077328;28;20214;-72
2021/05/10 10:20:48;;;;;;;6.65;1.00;;;;;;;26.53;36.93;95410.38;5076452;28;20227;-72
2021/05/10 10:23:17;;;;;;;3.05;1.00;;;;;;;26.64;34.71;95407.22;5077581;28;20208;-73
2021/05/10 10:25:44;;;;;;;2.90;1.00;;;;;;;26.61;35.50;95423.22;5077016;28;20204;-73
2021/05/10 10:28:14;;;;;;;3.15;0.93;;;;;;;26.92;34.40;95424.28;5077212;28;20199;-72
2021/05/10 10:30:44;;;;;;;4.63;1.05;;;;;;;27.10;36.31;95430.47;5077292;28;20224;-73
2021/05/10 10:33:14;;;;;;;1.20;0.90;;;;;;;27.28;36.20;95429.59;5076581;28;20214;-73
2021/05/10 10:35:44;;;;;;;5.43;1.02;;;;;;;27.61;34.44;95433.84;5076817;28;20219;-73
2021/05/10 10:38:11;;;;;;;3.58;1.10;;;;;;;27.77;32.86;95441.34;5077698;28;20211;-73
2021/05/10 10:40:38;;;;;;;2.55;0.85;;;;;;;27.46;34.00;95444.94;5077056;28;20223;-73
2021/05/10 10:43:20;;;;;;;2.05;0.80;;;;;;;27.44;33.34;95439.00;5076670;28;20212;-72
2021/05/10 10:46:15;;;;;;;7.05;0.90;;;;;;;27.17;32.15;95438.97;5076095;28;20196;-72
2021/05/10 10:48:41;;;;;;;4.90;0.98;;;;;;;27.04;33.12;95433.56;5077464;28;20208;-72
2021/05/10 10:51:07;;;;;;;2.90;0.90;;;;;;;27.08;33.51;95428.38;5077411;28;20220;-72
2021/05/10 10:53:45;;;;;;;4.43;0.70;;;;;;;27.12;33.26;95428.25;5076198;28;20203;-72
2021/05/10 10:56:12;;;;;;;4.38;1.15;;;;;;;27.08;32.66;95433.78;5076792;28;20223;-72
2021/05/10 10:58:41;;;;;;;6.50;0.90;;;;;;;27.26;33.94;95420.94;5077045;28;20204;-72
2021/05/10 11:01:13;;;;;;;2.95;0.80;;;;;;;27.41;33.55;95412.53;5076783;28;20736;-72
2021/05/10 11:03:40;;;;;;;2.08;0.90;;;;;;;27.52;33.06;95411.25;5074075;28;20203;-72
2021/05/10 11:06:07;;;;;;;5.15;1.80;;;;;;;27.64;32.61;95399.94;5076262;28;20707;-72
2021/05/10 11:08:47;;;;;;;14.40;1.13;;;;;;;27.76;33.14;95401.00;5076412;28;20278;-72
2021/05/10 11:11:40;;;;;;;2.88;0.90;;;;;;;27.76;32.95;95398.28;5076680;28;20239;-72
2021/05/10 11:14:10;;;;;;;2.30;0.80;;;;;;;27.83;32.34;95413.03;5077152;28;20203;-72
2021/05/10 11:16:45;;;;;;;5.07;1.02;;;;;;;27.70;32.58;95404.94;5075275;28;20198;-72
2021/05/10 11:19:31;;;;;;;2.80;1.48;;;;;;;27.55;32.82;95407.94;5076493;28;20214;-72
2021/05/10 11:21:58;;;;;;;6.97;1.10;;;;;;;27.65;31.71;95402.34;5075373;28;20203;-72
2021/05/10 11:24:26;;;;;;;5.63;1.30;;;;;;;27.71;31.05;95390.28;5073990;28;20718;-72
2021/05/10 11:26:54;;;;;;;4.47;0.80;;;;;;;27.62;30.82;95386.69;5076132;28;20196;-72
2021/05/10 11:29:47;;;;;;;4.85;0.90;;;;;;;27.66;30.90;95398.53;5076403;28;21075;-73
2021/05/10 11:32:32;;;;;;;2.78;0.90;;;;;;;27.69;31.52;95402.56;5076516;28;20199;-73
2021/05/10 11:35:25;;;;;;;3.83;0.80;;;;;;;27.63;32.35;95401.84;5075908;28;20287;-73